CST,Max TemperatureF,Mean TemperatureF,Min TemperatureF,Max Dew PointF,MeanDew PointF,Min DewpointF,Max Humidity, Mean Humidity, Min Humidity, Max Sea Level PressureIn, Mean Sea Level PressureIn, Min Sea Level PressureIn, Max VisibilityMiles, Mean VisibilityMiles, Min VisibilityMiles, Max Wind SpeedMPH, Mean Wind SpeedMPH, Max Gust SpeedMPH,PrecipitationIn, CloudCover, Events, WindDirDegrees
2013-11-1,90,81,69,77,72,68,94,74,48,29.91,29.84,29.77,12,8,6,13,6,,0.02,4,Rain-Thunderstorm,134
2013-11-2,88,78,69,73,71,68,90,70,46,29.97,29.89,29.81,12,8,6,9,7,,0.00,3,,127
2013-11-3,85,76,68,72,70,66,94,77,58,29.97,29.90,29.84,12,7,0,12,4,,0.00,4,Fog,216
2013-11-4,84,76,67,74,72,66,94,78,67,29.94,29.87,29.81,12,8,6,13,5,,0.00,7,,301
2013-11-5,88,80,72,73,72,70,94,73,47,29.90,29.82,29.75,12,8,6,10,5,,0.12,5,Rain,233
2013-11-6,86,79,72,75,73,71,94,76,59,29.89,29.84,29.77,12,8,6,8,4,,0.00,5,Rain,225
2013-11-7,87,80,74,77,74,73,94,78,60,29.92,29.84,29.77,12,7,2,12,4,,0.00,5,Rain,283
2013-11-8,86,79,72,75,74,72,100,86,63,29.90,29.82,29.73,12,6,0,9,4,,0.08,6,Fog-Rain,287
2013-11-9,88,80,73,75,73,72,94,81,58,29.89,29.84,29.78,12,8,6,9,4,,0.39,7,Rain,113
2013-11-10,88,80,72,75,72,68,94,74,53,29.90,29.82,29.76,12,8,6,10,5,,0.00,6,Rain,89
2013-11-11,85,79,73,72,70,68,83,66,49,29.87,29.81,29.75,12,8,6,10,7,,0.00,7,,91
2013-11-12,90,82,73,73,71,69,94,64,44,29.83,29.78,29.71,12,8,6,21,9,32,0.00,6,,82
2013-11-13,89,81,73,72,70,66,88,62,45,29.83,29.78,29.71,12,8,6,18,9,,0.00,4,,96
2013-11-14,89,78,68,75,72,67,94,78,47,29.89,29.81,29.75,12,7,2,13,6,,0.98,6,Rain,180
2013-11-15,87,80,72,77,74,71,97,84,62,29.89,29.81,29.74,12,7,0,9,3,,0.24,6,Fog-Rain,230
2013-11-16,88,80,72,73,71,70,89,66,46,29.87,29.79,29.74,12,8,6,18,9,,0.00,6,,92
2013-11-17,92,84,75,76,73,70,89,68,43,29.86,29.80,29.73,12,8,6,10,6,,0.00,3,,73
2013-11-18,91,82,72,73,72,68,94,66,43,29.89,29.81,29.74,12,6,0,14,4,,0.00,5,Fog,70
2013-11-19,90,80,70,72,70,68,94,66,40,29.86,29.79,29.71,12,8,6,8,4,,0.00,7,,151
2013-11-20,90,79,68,73,71,66,94,70,45,29.93,29.86,29.80,12,8,6,12,3,,0.08,4,,45
2013-11-21,88,80,72,75,73,70,94,76,52,29.98,29.89,29.83,12,8,6,10,3,,0.04,3,Fog-Rain,269
2013-11-22,89,80,71,73,71,68,94,67,43,29.94,29.84,29.76,12,7,0,12,5,,0.00,5,Fog,118
2013-11-23,90,80,70,73,69,68,90,62,38,29.88,29.81,29.74,12,8,6,12,5,,0.00,4,,73
2013-11-24,89,80,70,73,69,66,94,64,42,29.92,29.84,29.77,12,8,6,15,6,,0.00,4,,81
2013-11-25,92,81,70,73,71,68,94,66,44,29.92,29.84,29.76,12,8,6,12,5,,0.00,2,,185
2013-11-26,88,79,70,73,71,50,94,72,34,29.91,29.84,29.76,12,7,0,10,5,,0.00,3,Fog,295
2013-11-27,90,80,70,73,70,68,94,70,52,29.91,29.83,29.75,12,7,0,14,4,,0.00,4,Fog,115
2013-11-28,88,80,72,70,68,66,88,60,41,29.94,29.86,29.80,12,8,6,104,14,,0.00,4,,53
2013-11-29,88,80,72,72,69,66,78,65,47,29.94,29.87,29.82,12,7,6,21,10,33,0.04,4,,87
2013-11-30,88,80,71,70,68,66,88,61,42,29.94,29.86,29.78,12,8,6,21,11,32,0.00,3,,72